createdAt,value
2023-12-31T00:00:21.739Z,94361.44
2023-12-31T00:02:48.540Z,94383.06
2023-12-31T00:05:15.450Z,94356.22
2023-12-31T00:07:42.239Z,94396.34
2023-12-31T00:10:09.901Z,94327.00
2023-12-31T00:12:37.153Z,94401.19
2023-12-31T00:15:05.620Z,94389.16
2023-12-31T00:17:32.557Z,94368.94
2023-12-31T00:19:59.545Z,94363.47
2023-12-31T00:22:26.336Z,94369.19
2023-12-31T00:24:55.401Z,94382.69
2023-12-31T00:27:22.371Z,94420.91
2023-12-31T00:29:50.224Z,94417.81
2023-12-31T00:32:17.873Z,94411.16
2023-12-31T00:34:45.136Z,94385.91
2023-12-31T00:37:11.971Z,94399.63
2023-12-31T00:39:38.812Z,94356.69
2023-12-31T00:42:07.147Z,94334.41
2023-12-31T00:44:33.975Z,94309.81
2023-12-31T00:47:00.729Z,94342.06
2023-12-31T00:49:27.518Z,94368.94
2023-12-31T00:51:54.351Z,94301.91
2023-12-31T00:54:21.157Z,94315.25
2023-12-31T00:56:47.957Z,94326.66
2023-12-31T00:59:14.741Z,94284.13
2023-12-31T01:01:41.515Z,94282.34
2023-12-31T01:04:08.342Z,94311.66
2023-12-31T01:06:36.225Z,94304.22
2023-12-31T01:09:03.557Z,94353.97
2023-12-31T01:11:30.292Z,94382.72
2023-12-31T01:13:57.118Z,94317.78
2023-12-31T01:16:24.105Z,94342.28
2023-12-31T01:18:50.892Z,94323.59
2023-12-31T01:21:19.657Z,94352.56
2023-12-31T01:23:47.834Z,94386.41
2023-12-31T01:26:15.430Z,94399.09
2023-12-31T01:28:42.316Z,94376.41
2023-12-31T01:31:09.096Z,94390.38
2023-12-31T01:33:39.085Z,94344.59
2023-12-31T01:36:14.764Z,94311.16
2023-12-31T01:38:43.388Z,94342.44
2023-12-31T01:41:10.729Z,94374.53
2023-12-31T01:43:38.052Z,94376.91
2023-12-31T01:46:11.077Z,94370.06
2023-12-31T01:48:40.587Z,94361.09
2023-12-31T01:51:07.595Z,94324.06
2023-12-31T01:53:34.581Z,94310.16
2023-12-31T01:56:02.676Z,94321.63
2023-12-31T01:58:29.682Z,94305.97
2023-12-31T02:00:57.241Z,94293.94
2023-12-31T02:03:26.386Z,94223.25
2023-12-31T02:05:53.465Z,94262.75
2023-12-31T02:08:20.255Z,94255.44
2023-12-31T02:10:47.080Z,94232.66
2023-12-31T02:13:13.854Z,94280.16
2023-12-31T02:15:40.693Z,94270.44
2023-12-31T02:18:07.724Z,94272.53
2023-12-31T02:20:35.687Z,94345.19
2023-12-31T02:23:02.764Z,94341.03
2023-12-31T02:25:30.926Z,94330.88
2023-12-31T02:27:57.793Z,94280.66
2023-12-31T02:30:26.092Z,94249.09
2023-12-31T02:32:52.977Z,94230.44
2023-12-31T02:35:19.800Z,94251.94
2023-12-31T02:37:46.804Z,94237.31
2023-12-31T02:40:13.662Z,94303.84
2023-12-31T02:42:40.422Z,94318.81
2023-12-31T02:45:07.458Z,94305.63
2023-12-31T02:47:34.286Z,94292.06
2023-12-31T02:50:01.480Z,94268.31
2023-12-31T02:52:28.300Z,94257.47
2023-12-31T02:54:55.988Z,94242.91
2023-12-31T02:57:23.637Z,94273.72
2023-12-31T02:59:50.444Z,94264.03
2023-12-31T03:02:17.254Z,94267.59
2023-12-31T03:04:44.210Z,94225.34
2023-12-31T03:07:11.039Z,94266.50
2023-12-31T03:09:37.776Z,94262.31
2023-12-31T03:12:04.969Z,94250.31
2023-12-31T03:14:32.016Z,94248.25
2023-12-31T03:16:59.229Z,94237.47
2023-12-31T03:19:26.290Z,94212.63
2023-12-31T03:21:53.021Z,94241.75
2023-12-31T03:24:23.709Z,94236.72
2023-12-31T03:26:51.038Z,94214.31
2023-12-31T03:29:17.944Z,94214.38
2023-12-31T03:31:44.923Z,94205.19
2023-12-31T03:34:11.942Z,94210.81
2023-12-31T03:36:38.840Z,94147.59
2023-12-31T03:39:05.684Z,94159.28
2023-12-31T03:41:32.869Z,94187.41
2023-12-31T03:44:00.852Z,94192.38
2023-12-31T03:46:32.644Z,94201.66
2023-12-31T03:48:59.611Z,94203.22
2023-12-31T03:51:26.427Z,94252.31
2023-12-31T03:53:53.225Z,94219.66
2023-12-31T03:56:20.029Z,94224.91
2023-12-31T03:58:46.772Z,94181.34
2023-12-31T04:01:14.115Z,94208.56
2023-12-31T04:03:40.918Z,94165.25
2023-12-31T04:06:10.757Z,94157.66
2023-12-31T04:08:37.594Z,94186.34
2023-12-31T04:11:04.731Z,94194.84
2023-12-31T04:13:31.664Z,94195.09
2023-12-31T04:15:58.579Z,94223.28
2023-12-31T04:18:25.454Z,94217.25
2023-12-31T04:20:52.993Z,94206.44
2023-12-31T04:23:19.766Z,94222.81
2023-12-31T04:25:46.807Z,94199.78
2023-12-31T04:28:13.704Z,94187.63
2023-12-31T04:30:41.939Z,94183.81
2023-12-31T04:33:08.853Z,94172.34
2023-12-31T04:35:35.921Z,94154.81
2023-12-31T04:38:03.685Z,94171.09
2023-12-31T04:40:30.554Z,94149.38
2023-12-31T04:42:57.325Z,94129.91
2023-12-31T04:45:24.360Z,94144.66
2023-12-31T04:47:51.123Z,94177.97
2023-12-31T04:50:18.089Z,94171.13
2023-12-31T04:52:45.149Z,94118.09
2023-12-31T04:55:12.004Z,94079.53
2023-12-31T04:57:38.831Z,94070.78
2023-12-31T05:00:07.285Z,94100.56
2023-12-31T05:02:34.932Z,94135.09
2023-12-31T05:05:04.083Z,94087.97
2023-12-31T05:07:31.149Z,94102.34
2023-12-31T05:09:58.267Z,94118.28
2023-12-31T05:12:25.018Z,94138.13
2023-12-31T05:14:51.829Z,94076.91
2023-12-31T05:17:18.663Z,94101.00
2023-12-31T05:19:46.565Z,94094.94
2023-12-31T05:22:13.887Z,94032.44
2023-12-31T05:24:40.755Z,94028.22
2023-12-31T05:27:07.487Z,94058.19
2023-12-31T05:29:34.232Z,94093.13
2023-12-31T05:32:01.010Z,94040.41
2023-12-31T05:34:27.807Z,94044.38
2023-12-31T05:36:54.625Z,94093.63
2023-12-31T05:39:21.353Z,94113.88
2023-12-31T05:41:48.106Z,94096.78
2023-12-31T05:44:14.887Z,94093.38
2023-12-31T05:46:41.790Z,94061.31
2023-12-31T05:49:08.903Z,94088.09
2023-12-31T05:51:35.782Z,94109.19
2023-12-31T05:54:02.673Z,94103.88
2023-12-31T05:56:29.527Z,94081.75
2023-12-31T05:58:56.329Z,94099.94
2023-12-31T06:01:23.282Z,94062.53
2023-12-31T06:03:50.238Z,94074.50
2023-12-31T06:06:17.336Z,94083.66
2023-12-31T06:08:44.166Z,94052.34
2023-12-31T06:11:10.864Z,94042.13
2023-12-31T06:13:37.825Z,94034.56
2023-12-31T06:16:04.987Z,94076.34
2023-12-31T06:18:31.801Z,94079.25
2023-12-31T06:20:58.569Z,94094.31
2023-12-31T06:23:25.332Z,94083.97
2023-12-31T06:25:52.113Z,94067.41
2023-12-31T06:28:18.948Z,94054.03
2023-12-31T06:30:45.851Z,94068.81
2023-12-31T06:33:12.706Z,94096.19
2023-12-31T06:35:39.454Z,94025.56
2023-12-31T06:38:06.375Z,94034.97
2023-12-31T06:40:33.182Z,94001.38
2023-12-31T06:42:59.950Z,93986.97
2023-12-31T06:45:26.928Z,94019.84
2023-12-31T06:47:53.714Z,94035.47
2023-12-31T06:50:20.525Z,93993.16
2023-12-31T06:52:47.293Z,94035.09
2023-12-31T06:55:14.592Z,94062.53
2023-12-31T06:57:41.883Z,94067.03
2023-12-31T07:00:09.438Z,94058.31
2023-12-31T07:02:36.659Z,94039.00
2023-12-31T07:05:04.207Z,94029.00
2023-12-31T07:07:31.059Z,94052.03
2023-12-31T07:09:57.864Z,93988.78
2023-12-31T07:12:24.622Z,93974.44
2023-12-31T07:14:51.363Z,93994.03
2023-12-31T07:17:18.305Z,93976.00
2023-12-31T07:19:45.236Z,93990.88
2023-12-31T07:22:12.157Z,94014.59
2023-12-31T07:24:40.951Z,94010.41
2023-12-31T07:27:09.678Z,93983.00
2023-12-31T07:29:37.052Z,93968.75
2023-12-31T07:32:05.152Z,93957.16
2023-12-31T07:34:32.030Z,93999.34
2023-12-31T07:36:59.503Z,94007.59
2023-12-31T07:39:27.517Z,94022.72
2023-12-31T07:41:54.471Z,94028.75
2023-12-31T07:44:21.530Z,93991.22
2023-12-31T07:46:48.377Z,93946.00
2023-12-31T07:49:15.307Z,93985.69
2023-12-31T07:51:42.334Z,93937.16
2023-12-31T07:54:09.240Z,93951.69
2023-12-31T07:56:36.128Z,93922.38
2023-12-31T07:59:04.774Z,93915.38
2023-12-31T08:01:31.847Z,93942.34
2023-12-31T08:03:59.499Z,93985.66
2023-12-31T08:06:27.968Z,93980.47
2023-12-31T08:08:54.864Z,94009.47
2023-12-31T08:11:22.636Z,94005.56
2023-12-31T08:13:50.301Z,93945.34
2023-12-31T08:16:17.847Z,93980.63
2023-12-31T08:18:45.456Z,93966.50
2023-12-31T08:21:12.566Z,93943.78
2023-12-31T08:23:39.809Z,93990.28
2023-12-31T08:26:06.801Z,93969.78
2023-12-31T08:28:34.637Z,93947.63
2023-12-31T08:31:01.871Z,94008.38
2023-12-31T08:33:28.791Z,93960.69
2023-12-31T08:35:55.649Z,93982.34
2023-12-31T08:38:22.550Z,93976.38
2023-12-31T08:40:49.439Z,93960.75
2023-12-31T08:43:17.401Z,93983.31
2023-12-31T08:45:44.895Z,93984.25
2023-12-31T08:48:12.461Z,93946.06
2023-12-31T08:50:39.380Z,93921.56
2023-12-31T08:53:06.653Z,93903.06
2023-12-31T08:55:33.984Z,93926.75
2023-12-31T08:58:01.641Z,93994.28
2023-12-31T09:00:28.610Z,94050.38
2023-12-31T09:02:58.390Z,94099.84
2023-12-31T09:05:25.223Z,94030.56
2023-12-31T09:07:52.259Z,94085.72
2023-12-31T09:10:19.289Z,94041.22
2023-12-31T09:12:46.120Z,94053.50
2023-12-31T09:15:13.035Z,94043.88
2023-12-31T09:17:39.933Z,94026.13
2023-12-31T09:20:08.201Z,93994.66
2023-12-31T09:22:35.480Z,93942.81
2023-12-31T09:25:02.855Z,93954.78
2023-12-31T09:27:29.645Z,93915.03
2023-12-31T09:29:57.163Z,93928.56
2023-12-31T09:32:24.865Z,93984.72
2023-12-31T09:34:51.834Z,93999.56
2023-12-31T09:37:21.760Z,93973.09
2023-12-31T09:39:49.221Z,93907.97
2023-12-31T09:42:33.523Z,93951.75
2023-12-31T09:45:04.639Z,93896.22
2023-12-31T09:47:34.126Z,93942.34
2023-12-31T09:50:02.516Z,93942.06
2023-12-31T09:52:31.890Z,93914.56
2023-12-31T09:54:59.737Z,93922.69
2023-12-31T09:57:27.387Z,93925.44
2023-12-31T09:59:56.077Z,93963.69
2023-12-31T10:02:27.397Z,93968.31
2023-12-31T10:04:55.634Z,93972.00
2023-12-31T10:07:24.370Z,93936.84
2023-12-31T10:09:52.859Z,93955.28
2023-12-31T10:12:20.801Z,93949.03
2023-12-31T10:14:49.218Z,93934.38
2023-12-31T10:17:16.171Z,93923.59
2023-12-31T10:19:43.129Z,93896.22
2023-12-31T10:22:10.021Z,93876.38
2023-12-31T10:24:37.005Z,93901.97
2023-12-31T10:27:06.490Z,93894.19
2023-12-31T10:29:34.222Z,93863.25
2023-12-31T10:32:07.972Z,93900.34
2023-12-31T10:34:35.371Z,93903.16
2023-12-31T10:37:07.536Z,93880.38
2023-12-31T10:39:36.661Z,93882.09
2023-12-31T10:42:05.621Z,93897.06
2023-12-31T10:44:41.407Z,93876.66
2023-12-31T10:47:11.424Z,93866.03
2023-12-31T10:49:47.423Z,93915.22
2023-12-31T10:52:16.530Z,93887.19
2023-12-31T10:54:53.144Z,93896.69
2023-12-31T10:57:22.841Z,93907.94
2023-12-31T10:59:51.506Z,93943.56
2023-12-31T11:02:19.867Z,93904.53
2023-12-31T11:04:48.259Z,93935.91
2023-12-31T11:07:16.878Z,93925.25
2023-12-31T11:09:44.760Z,93937.78
2023-12-31T11:12:12.093Z,93917.97
2023-12-31T11:14:44.415Z,93914.81
2023-12-31T11:17:52.982Z,93918.97
2023-12-31T11:20:44.446Z,93907.06
2023-12-31T11:23:38.687Z,93837.78
2023-12-31T11:26:08.941Z,93877.59
2023-12-31T11:28:38.866Z,93907.94
2023-12-31T11:31:10.542Z,93867.44
2023-12-31T11:33:40.599Z,93887.19
2023-12-31T11:36:16.736Z,93866.91
2023-12-31T11:39:09.657Z,93881.75
2023-12-31T11:41:50.957Z,93918.66
2023-12-31T11:44:43.778Z,93852.03
2023-12-31T11:47:16.105Z,93857.84
2023-12-31T11:50:09.147Z,93852.41
2023-12-31T11:52:42.175Z,93830.34
2023-12-31T11:55:13.832Z,93883.84
2023-12-31T11:57:44.414Z,93844.06
2023-12-31T12:00:12.778Z,93916.88
2023-12-31T12:02:39.558Z,93918.16
2023-12-31T12:05:07.073Z,93917.88
2023-12-31T12:07:34.012Z,93912.72
2023-12-31T12:10:04.769Z,93865.88
2023-12-31T12:12:31.896Z,93884.63
2023-12-31T12:14:58.665Z,93900.03
2023-12-31T12:17:30.141Z,93872.28
2023-12-31T12:19:57.904Z,93831.56
2023-12-31T12:22:25.314Z,93834.94
2023-12-31T12:24:52.312Z,93854.47
2023-12-31T12:27:19.335Z,93855.94
2023-12-31T12:29:46.639Z,93845.03
2023-12-31T12:32:18.737Z,93838.81
2023-12-31T12:34:50.282Z,93805.44
2023-12-31T12:37:17.775Z,93803.72
2023-12-31T12:39:44.649Z,93778.28
2023-12-31T12:42:11.511Z,93779.25
2023-12-31T12:44:39.114Z,93792.53
2023-12-31T12:47:06.235Z,93760.03
2023-12-31T12:49:33.011Z,93753.00
2023-12-31T12:51:59.828Z,93771.00
2023-12-31T12:54:27.311Z,93798.84
2023-12-31T12:56:54.128Z,93793.38
2023-12-31T12:59:21.019Z,93762.91
2023-12-31T13:01:47.857Z,93713.84
2023-12-31T13:04:16.194Z,93745.44
2023-12-31T13:06:42.945Z,93717.50
2023-12-31T13:09:09.964Z,93733.19
2023-12-31T13:11:36.818Z,93739.63
2023-12-31T13:14:03.914Z,93741.97
2023-12-31T13:16:40.429Z,93748.31
2023-12-31T13:19:14.708Z,93709.59
2023-12-31T13:21:41.968Z,93695.00
2023-12-31T13:24:08.902Z,93655.56
2023-12-31T13:26:35.670Z,93715.25
2023-12-31T13:29:04.583Z,93728.09
2023-12-31T13:31:32.304Z,93699.13
2023-12-31T13:33:59.625Z,93687.75
2023-12-31T13:36:26.651Z,93703.31
2023-12-31T13:38:53.441Z,93720.16
2023-12-31T13:41:23.613Z,93682.09
2023-12-31T13:43:51.719Z,93686.53
2023-12-31T13:46:18.708Z,93701.66
2023-12-31T13:48:45.718Z,93656.81
2023-12-31T13:51:13.117Z,93670.44
2023-12-31T13:53:40.043Z,93632.16
2023-12-31T13:56:07.640Z,93632.53
2023-12-31T13:58:34.754Z,93613.84
2023-12-31T14:01:01.693Z,93596.56
2023-12-31T14:03:28.691Z,93618.22
2023-12-31T14:05:55.574Z,93597.84
2023-12-31T14:08:22.376Z,93657.97
2023-12-31T14:10:51.045Z,93636.59
2023-12-31T14:13:17.856Z,93662.47
2023-12-31T14:15:44.892Z,93644.13
2023-12-31T14:18:12.039Z,93649.56
2023-12-31T14:20:38.820Z,93619.44
2023-12-31T14:23:05.909Z,93685.88
2023-12-31T14:25:32.917Z,93671.13
2023-12-31T14:27:59.855Z,93572.34
2023-12-31T14:30:26.638Z,93601.56
2023-12-31T14:32:53.616Z,93617.81
2023-12-31T14:35:20.636Z,93623.56
2023-12-31T14:37:47.452Z,93654.78
2023-12-31T14:40:14.400Z,93681.19
2023-12-31T14:42:41.687Z,93653.28
2023-12-31T14:45:09.582Z,93637.22
2023-12-31T14:47:36.913Z,93602.84
2023-12-31T14:50:04.142Z,93565.31
2023-12-31T14:52:31.199Z,93581.88
2023-12-31T14:54:58.021Z,93609.66
2023-12-31T14:57:24.872Z,93621.13
2023-12-31T14:59:51.630Z,93586.72
2023-12-31T15:02:26.137Z,93584.91
2023-12-31T15:05:01.103Z,93576.88
2023-12-31T15:07:34.434Z,93588.91
2023-12-31T15:10:01.354Z,93599.16
2023-12-31T15:12:28.990Z,93587.06
2023-12-31T15:14:55.727Z,93586.03
2023-12-31T15:17:22.621Z,93666.84
2023-12-31T15:19:49.501Z,93759.56
2023-12-31T15:22:16.341Z,93788.69
2023-12-31T15:24:43.563Z,93782.22
2023-12-31T15:27:10.446Z,93822.56
2023-12-31T15:29:37.233Z,93843.59
2023-12-31T15:32:04.278Z,93841.69
2023-12-31T15:34:31.197Z,93869.13
2023-12-31T15:36:57.986Z,93854.22
2023-12-31T15:39:24.836Z,93858.78
2023-12-31T15:41:51.838Z,93848.53
2023-12-31T15:44:18.715Z,93864.19
2023-12-31T15:46:45.739Z,93862.44
2023-12-31T15:49:13.031Z,93867.13
2023-12-31T15:51:39.936Z,93865.59
2023-12-31T15:54:06.721Z,93876.03
2023-12-31T15:56:33.506Z,93859.94
2023-12-31T15:59:00.415Z,93864.03
2023-12-31T16:01:27.444Z,93867.84
2023-12-31T16:03:54.257Z,93866.84
2023-12-31T16:06:21.186Z,93871.09
2023-12-31T16:08:48.030Z,93869.69
2023-12-31T16:11:17.165Z,93873.78
2023-12-31T16:13:44.024Z,93858.44
2023-12-31T16:16:12.541Z,93875.06
2023-12-31T16:18:39.688Z,93873.38
2023-12-31T16:21:06.768Z,93873.00
2023-12-31T16:23:33.546Z,93876.72
2023-12-31T16:26:00.538Z,93907.44
2023-12-31T16:28:28.206Z,93916.91
2023-12-31T16:30:55.427Z,93900.25
2023-12-31T16:33:23.481Z,93876.03
2023-12-31T16:35:50.392Z,93881.31
2023-12-31T16:38:17.255Z,93889.03
2023-12-31T16:40:44.184Z,93900.00
2023-12-31T16:43:11.368Z,93881.34
2023-12-31T16:45:39.745Z,93884.75
2023-12-31T16:48:07.591Z,93879.25
2023-12-31T16:50:36.193Z,93858.59
2023-12-31T16:53:03.208Z,93845.94
2023-12-31T16:55:30.256Z,93833.94
2023-12-31T16:57:57.227Z,93836.22
2023-12-31T17:00:25.073Z,93849.06
2023-12-31T17:02:51.886Z,93858.25
2023-12-31T17:05:18.892Z,93893.34
2023-12-31T17:07:45.730Z,93928.09
2023-12-31T17:10:13.494Z,93950.78
2023-12-31T17:12:41.210Z,93949.63
2023-12-31T17:15:11.851Z,93979.13
2023-12-31T17:17:38.717Z,93976.25
2023-12-31T17:20:06.293Z,93995.88
2023-12-31T17:22:35.024Z,94014.34
2023-12-31T17:25:03.441Z,93999.75
2023-12-31T17:27:33.321Z,94018.28
2023-12-31T17:30:01.481Z,94023.75
2023-12-31T17:32:28.636Z,94022.22
2023-12-31T17:34:55.886Z,94037.91
2023-12-31T17:37:22.707Z,94019.22
2023-12-31T17:39:49.750Z,94039.53
2023-12-31T17:42:16.464Z,94037.69
2023-12-31T17:44:43.477Z,93999.06
2023-12-31T17:47:10.213Z,94058.44
2023-12-31T17:49:37.620Z,94061.66
2023-12-31T17:52:04.725Z,94063.47
2023-12-31T17:54:31.602Z,94054.53
2023-12-31T17:56:58.371Z,94088.25
2023-12-31T17:59:25.356Z,94063.50
2023-12-31T18:01:52.171Z,94055.59
2023-12-31T18:04:18.990Z,94048.78
2023-12-31T18:06:45.699Z,94058.25
2023-12-31T18:09:12.579Z,94051.06
2023-12-31T18:11:39.425Z,94070.03
2023-12-31T18:14:06.353Z,94091.13
2023-12-31T18:16:33.221Z,94098.56
2023-12-31T18:19:00.876Z,94097.72
2023-12-31T18:21:27.784Z,94086.56
2023-12-31T18:23:55.635Z,94103.47
2023-12-31T18:26:23.358Z,94090.63
2023-12-31T18:28:50.235Z,94120.03
2023-12-31T18:31:17.457Z,94106.91
2023-12-31T18:33:44.256Z,94119.94
2023-12-31T18:36:11.911Z,94118.28
2023-12-31T18:38:38.861Z,94069.03
2023-12-31T18:41:05.731Z,94120.81
2023-12-31T18:43:32.472Z,94103.63
2023-12-31T18:46:03.493Z,94086.66
2023-12-31T18:48:30.388Z,94134.50
2023-12-31T18:50:59.802Z,94111.22
2023-12-31T18:53:26.553Z,94109.59
2023-12-31T18:55:53.392Z,94136.97
2023-12-31T18:58:20.260Z,94129.81
2023-12-31T19:00:47.175Z,94102.69
2023-12-31T19:03:14.060Z,94146.41
2023-12-31T19:05:40.885Z,94167.69
2023-12-31T19:08:08.699Z,94070.03
2023-12-31T19:10:35.815Z,94128.75
2023-12-31T19:13:02.578Z,94179.22
2023-12-31T19:15:29.379Z,94131.16
2023-12-31T19:17:56.145Z,94112.03
2023-12-31T19:20:22.943Z,94149.97
2023-12-31T19:22:49.815Z,94140.97
2023-12-31T19:25:17.001Z,94115.78
2023-12-31T19:27:43.882Z,94148.81
2023-12-31T19:30:10.907Z,94126.09
2023-12-31T19:32:44.728Z,94157.84
2023-12-31T19:35:16.921Z,94098.19
2023-12-31T19:37:43.890Z,94134.84
2023-12-31T19:40:11.466Z,94147.94
2023-12-31T19:42:38.169Z,94133.78
2023-12-31T19:45:05.307Z,94117.75
2023-12-31T19:47:32.135Z,94121.91
2023-12-31T19:49:59.733Z,94118.94
2023-12-31T19:52:28.213Z,94157.53
2023-12-31T19:54:55.314Z,94137.69
2023-12-31T19:57:22.485Z,94140.41
2023-12-31T19:59:51.362Z,94139.53
2023-12-31T20:02:18.919Z,94123.91
2023-12-31T20:04:45.847Z,94148.75
2023-12-31T20:07:12.721Z,94116.56
2023-12-31T20:09:39.766Z,94115.13
2023-12-31T20:12:07.756Z,94107.84
2023-12-31T20:14:34.594Z,94123.16
2023-12-31T20:17:01.433Z,94112.97
2023-12-31T20:19:28.364Z,94097.72
2023-12-31T20:21:55.480Z,94147.28
2023-12-31T20:24:22.256Z,94108.75
2023-12-31T20:26:49.056Z,94093.06
2023-12-31T20:29:17.137Z,94086.16
2023-12-31T20:31:45.840Z,94148.59
2023-12-31T20:34:15.427Z,94149.31
2023-12-31T20:36:42.166Z,94130.03
2023-12-31T20:39:08.993Z,94114.53
2023-12-31T20:41:35.945Z,94128.13
2023-12-31T20:44:02.928Z,94116.06
2023-12-31T20:46:30.906Z,94099.22
2023-12-31T20:48:58.338Z,94101.66
2023-12-31T20:51:26.347Z,94085.88
2023-12-31T20:53:53.191Z,94109.91
2023-12-31T20:56:20.092Z,94081.69
2023-12-31T20:58:47.040Z,94092.81
2023-12-31T21:01:16.106Z,94099.09
2023-12-31T21:03:44.156Z,94075.88
2023-12-31T21:06:11.211Z,94080.53
2023-12-31T21:08:37.962Z,94060.44
2023-12-31T21:11:05.078Z,94082.38
2023-12-31T21:13:32.191Z,94091.66
2023-12-31T21:16:01.195Z,94100.97
2023-12-31T21:18:29.706Z,94093.59
2023-12-31T21:20:57.707Z,94081.16
2023-12-31T21:23:24.570Z,94101.31
2023-12-31T21:25:51.521Z,94069.72
2023-12-31T21:28:18.398Z,94083.09
2023-12-31T21:30:45.389Z,94092.88
2023-12-31T21:33:12.607Z,94100.09
2023-12-31T21:35:39.461Z,94062.53
2023-12-31T21:38:06.680Z,94069.34
2023-12-31T21:40:33.698Z,94061.09
2023-12-31T21:43:03.769Z,94050.94
2023-12-31T21:45:30.809Z,94093.69
2023-12-31T21:47:58.214Z,94041.81
2023-12-31T21:50:24.958Z,94094.47
2023-12-31T21:52:51.891Z,94114.00
2023-12-31T21:55:28.094Z,94098.28
2023-12-31T21:58:05.455Z,94089.03
2023-12-31T22:00:33.666Z,94092.16
2023-12-31T22:03:00.550Z,94098.50
2023-12-31T22:05:27.564Z,94111.06
2023-12-31T22:07:54.398Z,94126.91
2023-12-31T22:10:22.140Z,94126.50
2023-12-31T22:12:49.455Z,94087.88
2023-12-31T22:15:16.335Z,94072.03
2023-12-31T22:17:43.205Z,94121.28
2023-12-31T22:20:10.553Z,94127.66
2023-12-31T22:22:37.402Z,94108.19
2023-12-31T22:25:05.240Z,94117.81
2023-12-31T22:27:32.058Z,94170.56
2023-12-31T22:29:58.806Z,94178.09
2023-12-31T22:32:25.584Z,94139.63
2023-12-31T22:34:53.044Z,94125.84
2023-12-31T22:37:19.796Z,94137.13
2023-12-31T22:39:46.606Z,94182.06
2023-12-31T22:42:13.375Z,94171.31
2023-12-31T22:44:40.143Z,94160.63
2023-12-31T22:47:07.155Z,94161.94
2023-12-31T22:49:33.997Z,94126.13
2023-12-31T22:52:00.867Z,94103.09
2023-12-31T22:54:27.580Z,94148.88
2023-12-31T22:56:54.357Z,94108.50
2023-12-31T22:59:21.139Z,94136.91
2023-12-31T23:01:47.937Z,94141.03
2023-12-31T23:04:14.688Z,94162.00
2023-12-31T23:06:41.446Z,94145.41
2023-12-31T23:09:08.208Z,94167.84
2023-12-31T23:11:35.964Z,94189.53
2023-12-31T23:14:02.873Z,94186.94
2023-12-31T23:16:29.747Z,94127.28
2023-12-31T23:18:56.611Z,94138.88
2023-12-31T23:21:23.433Z,94173.75
2023-12-31T23:23:50.219Z,94144.22
2023-12-31T23:26:19.818Z,94143.56
2023-12-31T23:28:48.074Z,94151.81
2023-12-31T23:31:14.794Z,94114.97
2023-12-31T23:33:41.651Z,94120.47
2023-12-31T23:36:08.804Z,94137.72
2023-12-31T23:38:35.537Z,94133.47
2023-12-31T23:41:02.334Z,94107.31
2023-12-31T23:43:29.142Z,94125.91
2023-12-31T23:45:55.866Z,94137.06
2023-12-31T23:48:22.748Z,94140.81
2023-12-31T23:50:49.523Z,94166.84
2023-12-31T23:53:16.328Z,94152.53
2023-12-31T23:55:43.154Z,94110.53
2023-12-31T23:58:14.786Z,94128.44
